sensor_id;sensor_type;location;lat;lon;timestamp;P1;durP1;ratioP1;P2;durP2;ratioP2
71490;SDS011;59307;50.060;9.150;2022-07-03T00:00:08;3.28;;;1.95;;
71490;SDS011;59307;50.060;9.150;2022-07-03T00:02:33;3.13;;;2.17;;
71490;SDS011;59307;50.060;9.150;2022-07-03T00:04:58;6.93;;;2.60;;
71490;SDS011;59307;50.060;9.150;2022-07-03T00:07:24;2.77;;;1.90;;
71490;SDS011;59307;50.060;9.150;2022-07-03T00:09:49;5.78;;;2.13;;
71490;SDS011;59307;50.060;9.150;2022-07-03T00:12:15;2.90;;;1.90;;
71490;SDS011;59307;50.060;9.150;2022-07-03T00:14:40;3.77;;;2.00;;
71490;SDS011;59307;50.060;9.150;2022-07-03T00:17:05;3.17;;;2.00;;
71490;SDS011;59307;50.060;9.150;2022-07-03T00:19:31;3.67;;;1.80;;
71490;SDS011;59307;50.060;9.150;2022-07-03T00:21:57;2.87;;;1.93;;
71490;SDS011;59307;50.060;9.150;2022-07-03T00:24:30;3.83;;;2.30;;
71490;SDS011;59307;50.060;9.150;2022-07-03T00:26:58;4.90;;;2.27;;
71490;SDS011;59307;50.060;9.150;2022-07-03T00:29:25;8.02;;;3.55;;
71490;SDS011;59307;50.060;9.150;2022-07-03T00:31:54;4.53;;;2.42;;
71490;SDS011;59307;50.060;9.150;2022-07-03T00:34:20;4.57;;;2.50;;
71490;SDS011;59307;50.060;9.150;2022-07-03T00:36:50;4.23;;;2.47;;
71490;SDS011;59307;50.060;9.150;2022-07-03T00:39:17;3.88;;;2.50;;
71490;SDS011;59307;50.060;9.150;2022-07-03T00:41:43;3.90;;;2.40;;
71490;SDS011;59307;50.060;9.150;2022-07-03T00:44:10;3.42;;;2.10;;
71490;SDS011;59307;50.060;9.150;2022-07-03T00:46:36;6.70;;;2.70;;
71490;SDS011;59307;50.060;9.150;2022-07-03T00:49:03;4.78;;;2.60;;
71490;SDS011;59307;50.060;9.150;2022-07-03T00:51:31;4.45;;;2.22;;
71490;SDS011;59307;50.060;9.150;2022-07-03T00:53:59;4.55;;;2.47;;
71490;SDS011;59307;50.060;9.150;2022-07-03T00:56:29;3.77;;;2.27;;
71490;SDS011;59307;50.060;9.150;2022-07-03T00:58:57;4.93;;;2.33;;
71490;SDS011;59307;50.060;9.150;2022-07-03T01:01:26;6.43;;;2.40;;
71490;SDS011;59307;50.060;9.150;2022-07-03T01:06:51;3.40;;;2.03;;
71490;SDS011;59307;50.060;9.150;2022-07-03T01:09:24;3.87;;;2.20;;
71490;SDS011;59307;50.060;9.150;2022-07-03T01:12:07;3.53;;;2.22;;
71490;SDS011;59307;50.060;9.150;2022-07-03T01:14:53;3.53;;;2.28;;
71490;SDS011;59307;50.060;9.150;2022-07-03T01:17:24;3.92;;;2.30;;
71490;SDS011;59307;50.060;9.150;2022-07-03T01:19:54;3.60;;;2.05;;
71490;SDS011;59307;50.060;9.150;2022-07-03T01:22:34;2.90;;;2.03;;
71490;SDS011;59307;50.060;9.150;2022-07-03T01:30:37;4.15;;;1.85;;
71490;SDS011;59307;50.060;9.150;2022-07-03T01:35:54;4.37;;;1.80;;
71490;SDS011;59307;50.060;9.150;2022-07-03T01:38:35;4.40;;;2.20;;
71490;SDS011;59307;50.060;9.150;2022-07-03T01:41:02;2.67;;;1.90;;
71490;SDS011;59307;50.060;9.150;2022-07-03T01:43:30;3.08;;;2.10;;
71490;SDS011;59307;50.060;9.150;2022-07-03T01:45:58;3.97;;;2.10;;
71490;SDS011;59307;50.060;9.150;2022-07-03T01:48:25;6.70;;;2.10;;
71490;SDS011;59307;50.060;9.150;2022-07-03T01:50:52;3.15;;;2.13;;
71490;SDS011;59307;50.060;9.150;2022-07-03T01:53:19;3.42;;;2.20;;
71490;SDS011;59307;50.060;9.150;2022-07-03T01:55:47;2.95;;;2.00;;
71490;SDS011;59307;50.060;9.150;2022-07-03T01:58:15;4.82;;;2.13;;
71490;SDS011;59307;50.060;9.150;2022-07-03T02:00:44;4.23;;;2.20;;
71490;SDS011;59307;50.060;9.150;2022-07-03T02:03:12;3.90;;;2.27;;
71490;SDS011;59307;50.060;9.150;2022-07-03T02:05:46;3.00;;;2.10;;
71490;SDS011;59307;50.060;9.150;2022-07-03T02:08:31;6.78;;;2.17;;
71490;SDS011;59307;50.060;9.150;2022-07-03T02:13:51;3.67;;;2.08;;
71490;SDS011;59307;50.060;9.150;2022-07-03T02:16:23;4.67;;;2.27;;
71490;SDS011;59307;50.060;9.150;2022-07-03T02:18:55;3.20;;;1.90;;
71490;SDS011;59307;50.060;9.150;2022-07-03T02:21:24;3.17;;;2.00;;
71490;SDS011;59307;50.060;9.150;2022-07-03T02:26:46;2.70;;;1.90;;
71490;SDS011;59307;50.060;9.150;2022-07-03T02:29:46;3.63;;;1.97;;
71490;SDS011;59307;50.060;9.150;2022-07-03T02:32:15;3.90;;;2.10;;
71490;SDS011;59307;50.060;9.150;2022-07-03T02:34:45;2.78;;;1.83;;
71490;SDS011;59307;50.060;9.150;2022-07-03T02:37:17;3.08;;;1.70;;
71490;SDS011;59307;50.060;9.150;2022-07-03T02:46:07;2.90;;;2.13;;
71490;SDS011;59307;50.060;9.150;2022-07-03T02:48:56;2.55;;;1.90;;
71490;SDS011;59307;50.060;9.150;2022-07-03T02:51:29;2.70;;;1.83;;
71490;SDS011;59307;50.060;9.150;2022-07-03T02:54:12;3.58;;;2.03;;
71490;SDS011;59307;50.060;9.150;2022-07-03T03:04:44;4.28;;;2.05;;
71490;SDS011;59307;50.060;9.150;2022-07-03T03:07:35;3.03;;;2.00;;
71490;SDS011;59307;50.060;9.150;2022-07-03T03:10:14;3.57;;;2.07;;
71490;SDS011;59307;50.060;9.150;2022-07-03T03:12:44;2.47;;;1.80;;
71490;SDS011;59307;50.060;9.150;2022-07-03T03:15:12;2.83;;;1.83;;
71490;SDS011;59307;50.060;9.150;2022-07-03T03:17:44;2.25;;;1.95;;
71490;SDS011;59307;50.060;9.150;2022-07-03T03:20:16;2.90;;;2.10;;
71490;SDS011;59307;50.060;9.150;2022-07-03T03:25:20;3.00;;;1.90;;
71490;SDS011;59307;50.060;9.150;2022-07-03T03:27:46;3.17;;;1.60;;
71490;SDS011;59307;50.060;9.150;2022-07-03T03:30:11;3.57;;;2.20;;
71490;SDS011;59307;50.060;9.150;2022-07-03T03:32:37;2.40;;;1.75;;
71490;SDS011;59307;50.060;9.150;2022-07-03T03:35:03;3.85;;;1.90;;
71490;SDS011;59307;50.060;9.150;2022-07-03T03:37:29;2.43;;;1.67;;
71490;SDS011;59307;50.060;9.150;2022-07-03T03:39:55;3.13;;;1.83;;
71490;SDS011;59307;50.060;9.150;2022-07-03T03:42:21;3.17;;;1.90;;
71490;SDS011;59307;50.060;9.150;2022-07-03T03:44:46;4.97;;;1.97;;
71490;SDS011;59307;50.060;9.150;2022-07-03T03:47:11;2.20;;;1.60;;
71490;SDS011;59307;50.060;9.150;2022-07-03T03:49:37;4.07;;;2.00;;
71490;SDS011;59307;50.060;9.150;2022-07-03T03:52:02;3.93;;;1.97;;
71490;SDS011;59307;50.060;9.150;2022-07-03T03:54:28;2.55;;;1.75;;
71490;SDS011;59307;50.060;9.150;2022-07-03T03:56:53;3.60;;;1.80;;
71490;SDS011;59307;50.060;9.150;2022-07-03T03:59:18;6.70;;;2.00;;
71490;SDS011;59307;50.060;9.150;2022-07-03T04:01:43;4.73;;;2.20;;
71490;SDS011;59307;50.060;9.150;2022-07-03T04:04:11;3.83;;;2.00;;
71490;SDS011;59307;50.060;9.150;2022-07-03T04:06:37;2.63;;;1.88;;
71490;SDS011;59307;50.060;9.150;2022-07-03T04:09:02;3.57;;;1.87;;
71490;SDS011;59307;50.060;9.150;2022-07-03T04:11:27;2.57;;;1.90;;
71490;SDS011;59307;50.060;9.150;2022-07-03T04:13:53;2.50;;;1.70;;
71490;SDS011;59307;50.060;9.150;2022-07-03T04:16:18;2.10;;;1.57;;
71490;SDS011;59307;50.060;9.150;2022-07-03T04:18:43;3.87;;;1.80;;
71490;SDS011;59307;50.060;9.150;2022-07-03T04:21:09;2.80;;;2.03;;
71490;SDS011;59307;50.060;9.150;2022-07-03T04:23:34;3.93;;;2.13;;
71490;SDS011;59307;50.060;9.150;2022-07-03T04:26:03;4.50;;;2.33;;
71490;SDS011;59307;50.060;9.150;2022-07-03T04:28:32;6.15;;;3.40;;
71490;SDS011;59307;50.060;9.150;2022-07-03T04:30:57;7.70;;;2.80;;
71490;SDS011;59307;50.060;9.150;2022-07-03T04:33:23;5.43;;;2.35;;
71490;SDS011;59307;50.060;9.150;2022-07-03T04:35:48;2.87;;;1.90;;
71490;SDS011;59307;50.060;9.150;2022-07-03T04:38:13;4.63;;;1.90;;
71490;SDS011;59307;50.060;9.150;2022-07-03T04:40:39;3.60;;;2.07;;
71490;SDS011;59307;50.060;9.150;2022-07-03T04:43:04;2.30;;;1.80;;
71490;SDS011;59307;50.060;9.150;2022-07-03T04:45:29;4.70;;;1.77;;
71490;SDS011;59307;50.060;9.150;2022-07-03T04:47:54;2.60;;;1.80;;
71490;SDS011;59307;50.060;9.150;2022-07-03T04:50:20;3.30;;;1.80;;
71490;SDS011;59307;50.060;9.150;2022-07-03T04:52:45;3.35;;;1.90;;
71490;SDS011;59307;50.060;9.150;2022-07-03T04:55:10;2.73;;;1.97;;
71490;SDS011;59307;50.060;9.150;2022-07-03T04:57:37;4.50;;;3.22;;
71490;SDS011;59307;50.060;9.150;2022-07-03T05:00:03;6.60;;;5.13;;
71490;SDS011;59307;50.060;9.150;2022-07-03T05:02:29;6.75;;;5.03;;
71490;SDS011;59307;50.060;9.150;2022-07-03T05:04:54;8.63;;;5.80;;
71490;SDS011;59307;50.060;9.150;2022-07-03T05:07:20;8.90;;;5.50;;
71490;SDS011;59307;50.060;9.150;2022-07-03T05:09:45;6.90;;;4.97;;
71490;SDS011;59307;50.060;9.150;2022-07-03T05:12:10;6.07;;;4.03;;
71490;SDS011;59307;50.060;9.150;2022-07-03T05:14:36;5.68;;;3.83;;
71490;SDS011;59307;50.060;9.150;2022-07-03T05:17:01;4.93;;;2.60;;
71490;SDS011;59307;50.060;9.150;2022-07-03T05:19:26;3.17;;;2.10;;
71490;SDS011;59307;50.060;9.150;2022-07-03T05:21:51;4.67;;;2.30;;
71490;SDS011;59307;50.060;9.150;2022-07-03T05:24:17;3.27;;;2.30;;
71490;SDS011;59307;50.060;9.150;2022-07-03T05:26:42;3.97;;;2.50;;
71490;SDS011;59307;50.060;9.150;2022-07-03T05:29:07;4.07;;;2.07;;
71490;SDS011;59307;50.060;9.150;2022-07-03T05:31:33;5.67;;;1.87;;
71490;SDS011;59307;50.060;9.150;2022-07-03T05:33:58;3.10;;;2.13;;
71490;SDS011;59307;50.060;9.150;2022-07-03T05:36:23;9.83;;;1.87;;
71490;SDS011;59307;50.060;9.150;2022-07-03T05:38:49;3.10;;;1.80;;
71490;SDS011;59307;50.060;9.150;2022-07-03T05:41:33;4.03;;;1.85;;
71490;SDS011;59307;50.060;9.150;2022-07-03T05:43:58;4.13;;;1.70;;
71490;SDS011;59307;50.060;9.150;2022-07-03T05:46:23;2.53;;;2.13;;
71490;SDS011;59307;50.060;9.150;2022-07-03T05:48:49;3.17;;;2.37;;
71490;SDS011;59307;50.060;9.150;2022-07-03T05:51:14;2.20;;;1.70;;
71490;SDS011;59307;50.060;9.150;2022-07-03T05:53:39;3.63;;;1.77;;
71490;SDS011;59307;50.060;9.150;2022-07-03T05:56:05;3.00;;;1.63;;
71490;SDS011;59307;50.060;9.150;2022-07-03T05:58:30;3.83;;;1.80;;
71490;SDS011;59307;50.060;9.150;2022-07-03T06:00:55;2.83;;;1.60;;
71490;SDS011;59307;50.060;9.150;2022-07-03T06:03:21;2.93;;;1.70;;
71490;SDS011;59307;50.060;9.150;2022-07-03T06:05:46;2.70;;;1.80;;
71490;SDS011;59307;50.060;9.150;2022-07-03T06:08:11;5.07;;;2.90;;
71490;SDS011;59307;50.060;9.150;2022-07-03T06:10:36;2.67;;;1.90;;
71490;SDS011;59307;50.060;9.150;2022-07-03T06:13:02;5.77;;;1.87;;
71490;SDS011;59307;50.060;9.150;2022-07-03T06:15:27;2.30;;;1.93;;
71490;SDS011;59307;50.060;9.150;2022-07-03T06:17:52;2.37;;;1.50;;
71490;SDS011;59307;50.060;9.150;2022-07-03T06:20:18;3.50;;;2.00;;
71490;SDS011;59307;50.060;9.150;2022-07-03T06:22:43;4.90;;;1.90;;
71490;SDS011;59307;50.060;9.150;2022-07-03T06:25:09;2.40;;;1.65;;
71490;SDS011;59307;50.060;9.150;2022-07-03T06:27:34;2.40;;;1.97;;
71490;SDS011;59307;50.060;9.150;2022-07-03T06:30:00;3.33;;;2.23;;
71490;SDS011;59307;50.060;9.150;2022-07-03T06:32:26;3.03;;;2.00;;
71490;SDS011;59307;50.060;9.150;2022-07-03T06:34:52;3.00;;;1.67;;
71490;SDS011;59307;50.060;9.150;2022-07-03T06:37:17;2.57;;;1.60;;
71490;SDS011;59307;50.060;9.150;2022-07-03T06:39:43;3.27;;;1.70;;
71490;SDS011;59307;50.060;9.150;2022-07-03T06:42:08;2.10;;;1.40;;
71490;SDS011;59307;50.060;9.150;2022-07-03T06:44:34;3.40;;;1.70;;
71490;SDS011;59307;50.060;9.150;2022-07-03T06:46:59;5.03;;;2.63;;
71490;SDS011;59307;50.060;9.150;2022-07-03T06:49:28;3.22;;;1.83;;
71490;SDS011;59307;50.060;9.150;2022-07-03T06:51:54;2.85;;;1.75;;
71490;SDS011;59307;50.060;9.150;2022-07-03T06:54:19;2.60;;;1.73;;
71490;SDS011;59307;50.060;9.150;2022-07-03T06:56:44;3.30;;;1.70;;
71490;SDS011;59307;50.060;9.150;2022-07-03T06:59:09;3.30;;;1.50;;
71490;SDS011;59307;50.060;9.150;2022-07-03T07:01:35;2.20;;;1.70;;
71490;SDS011;59307;50.060;9.150;2022-07-03T07:04:00;2.20;;;1.80;;
71490;SDS011;59307;50.060;9.150;2022-07-03T07:06:27;1.65;;;1.38;;
71490;SDS011;59307;50.060;9.150;2022-07-03T07:08:52;2.83;;;1.87;;
71490;SDS011;59307;50.060;9.150;2022-07-03T07:11:17;1.90;;;1.50;;
71490;SDS011;59307;50.060;9.150;2022-07-03T07:13:42;3.03;;;1.63;;
71490;SDS011;59307;50.060;9.150;2022-07-03T07:16:08;2.63;;;1.70;;
71490;SDS011;59307;50.060;9.150;2022-07-03T07:18:33;3.23;;;1.60;;
71490;SDS011;59307;50.060;9.150;2022-07-03T07:20:59;1.90;;;1.60;;
71490;SDS011;59307;50.060;9.150;2022-07-03T07:23:24;1.83;;;1.60;;
71490;SDS011;59307;50.060;9.150;2022-07-03T07:25:50;2.60;;;1.50;;
71490;SDS011;59307;50.060;9.150;2022-07-03T07:28:15;2.40;;;1.43;;
71490;SDS011;59307;50.060;9.150;2022-07-03T07:30:40;2.50;;;1.30;;
71490;SDS011;59307;50.060;9.150;2022-07-03T07:33:09;4.57;;;1.53;;
71490;SDS011;59307;50.060;9.150;2022-07-03T07:35:35;2.75;;;1.65;;
71490;SDS011;59307;50.060;9.150;2022-07-03T07:38:00;2.83;;;1.70;;
71490;SDS011;59307;50.060;9.150;2022-07-03T07:40:25;3.58;;;1.58;;
71490;SDS011;59307;50.060;9.150;2022-07-03T07:42:51;3.57;;;1.97;;
71490;SDS011;59307;50.060;9.150;2022-07-03T07:45:16;2.83;;;1.43;;
71490;SDS011;59307;50.060;9.150;2022-07-03T07:47:42;3.17;;;1.80;;
71490;SDS011;59307;50.060;9.150;2022-07-03T07:50:07;5.07;;;1.97;;
71490;SDS011;59307;50.060;9.150;2022-07-03T07:52:33;2.15;;;1.50;;
71490;SDS011;59307;50.060;9.150;2022-07-03T07:54:58;3.57;;;1.80;;
71490;SDS011;59307;50.060;9.150;2022-07-03T07:57:24;2.57;;;1.70;;
71490;SDS011;59307;50.060;9.150;2022-07-03T07:59:49;3.10;;;1.67;;
71490;SDS011;59307;50.060;9.150;2022-07-03T08:02:14;3.10;;;1.50;;
71490;SDS011;59307;50.060;9.150;2022-07-03T08:04:58;2.67;;;1.42;;
71490;SDS011;59307;50.060;9.150;2022-07-03T08:07:42;2.00;;;1.55;;
71490;SDS011;59307;50.060;9.150;2022-07-03T08:10:08;2.07;;;1.47;;
71490;SDS011;59307;50.060;9.150;2022-07-03T08:12:33;1.97;;;1.57;;
71490;SDS011;59307;50.060;9.150;2022-07-03T08:14:58;2.57;;;1.70;;
71490;SDS011;59307;50.060;9.150;2022-07-03T08:17:23;2.80;;;1.60;;
71490;SDS011;59307;50.060;9.150;2022-07-03T08:19:49;2.57;;;1.67;;
71490;SDS011;59307;50.060;9.150;2022-07-03T08:22:14;1.85;;;1.42;;
71490;SDS011;59307;50.060;9.150;2022-07-03T08:24:39;3.57;;;1.60;;
71490;SDS011;59307;50.060;9.150;2022-07-03T08:27:05;1.87;;;1.50;;
71490;SDS011;59307;50.060;9.150;2022-07-03T08:29:30;2.67;;;1.73;;
71490;SDS011;59307;50.060;9.150;2022-07-03T08:31:55;3.10;;;1.80;;
71490;SDS011;59307;50.060;9.150;2022-07-03T08:34:21;2.55;;;1.83;;
71490;SDS011;59307;50.060;9.150;2022-07-03T08:36:47;3.13;;;1.63;;
71490;SDS011;59307;50.060;9.150;2022-07-03T08:39:12;3.47;;;1.70;;
71490;SDS011;59307;50.060;9.150;2022-07-03T08:41:39;4.17;;;2.00;;
71490;SDS011;59307;50.060;9.150;2022-07-03T08:44:05;3.13;;;2.13;;
71490;SDS011;59307;50.060;9.150;2022-07-03T08:46:32;3.43;;;2.00;;
71490;SDS011;59307;50.060;9.150;2022-07-03T08:49:00;4.05;;;2.20;;
71490;SDS011;59307;50.060;9.150;2022-07-03T08:51:27;2.37;;;1.70;;
71490;SDS011;59307;50.060;9.150;2022-07-03T08:53:52;4.32;;;1.80;;
71490;SDS011;59307;50.060;9.150;2022-07-03T08:56:19;4.93;;;2.33;;
71490;SDS011;59307;50.060;9.150;2022-07-03T08:58:46;2.67;;;1.90;;
71490;SDS011;59307;50.060;9.150;2022-07-03T09:01:14;3.93;;;2.30;;
71490;SDS011;59307;50.060;9.150;2022-07-03T09:03:41;4.10;;;2.30;;
71490;SDS011;59307;50.060;9.150;2022-07-03T09:06:07;7.10;;;2.28;;
71490;SDS011;59307;50.060;9.150;2022-07-03T09:08:33;3.20;;;1.90;;
71490;SDS011;59307;50.060;9.150;2022-07-03T09:10:59;3.33;;;2.33;;
71490;SDS011;59307;50.060;9.150;2022-07-03T09:13:24;3.10;;;2.20;;
71490;SDS011;59307;50.060;9.150;2022-07-03T09:15:49;4.20;;;2.37;;
71490;SDS011;59307;50.060;9.150;2022-07-03T09:18:15;5.60;;;2.60;;
71490;SDS011;59307;50.060;9.150;2022-07-03T09:20:40;3.97;;;2.30;;
71490;SDS011;59307;50.060;9.150;2022-07-03T09:28:16;4.27;;;2.03;;
71490;SDS011;59307;50.060;9.150;2022-07-03T09:30:52;2.75;;;1.98;;
71490;SDS011;59307;50.060;9.150;2022-07-03T09:33:21;4.77;;;2.13;;
71490;SDS011;59307;50.060;9.150;2022-07-03T09:35:51;5.20;;;1.60;;
71490;SDS011;59307;50.060;9.150;2022-07-03T09:38:18;2.15;;;1.58;;
71490;SDS011;59307;50.060;9.150;2022-07-03T09:40:47;3.90;;;1.73;;
71490;SDS011;59307;50.060;9.150;2022-07-03T09:43:12;2.28;;;1.52;;
71490;SDS011;59307;50.060;9.150;2022-07-03T09:50:46;2.65;;;1.48;;
71490;SDS011;59307;50.060;9.150;2022-07-03T09:53:11;1.47;;;1.30;;
71490;SDS011;59307;50.060;9.150;2022-07-03T09:55:37;2.70;;;1.40;;
71490;SDS011;59307;50.060;9.150;2022-07-03T09:58:03;1.57;;;1.23;;
71490;SDS011;59307;50.060;9.150;2022-07-03T10:00:29;4.55;;;1.30;;
71490;SDS011;59307;50.060;9.150;2022-07-03T10:03:06;2.28;;;1.48;;
71490;SDS011;59307;50.060;9.150;2022-07-03T10:05:40;3.13;;;1.20;;
71490;SDS011;59307;50.060;9.150;2022-07-03T10:08:07;3.38;;;1.40;;
71490;SDS011;59307;50.060;9.150;2022-07-03T10:10:40;1.67;;;1.00;;
71490;SDS011;59307;50.060;9.150;2022-07-03T10:13:07;1.73;;;1.33;;
71490;SDS011;59307;50.060;9.150;2022-07-03T10:15:33;2.05;;;1.30;;
71490;SDS011;59307;50.060;9.150;2022-07-03T10:18:04;1.83;;;1.10;;
71490;SDS011;59307;50.060;9.150;2022-07-03T10:20:34;3.88;;;1.48;;
71490;SDS011;59307;50.060;9.150;2022-07-03T10:23:21;1.50;;;1.30;;
71490;SDS011;59307;50.060;9.150;2022-07-03T10:25:46;2.80;;;1.50;;
71490;SDS011;59307;50.060;9.150;2022-07-03T10:28:13;3.97;;;1.40;;
71490;SDS011;59307;50.060;9.150;2022-07-03T10:30:40;5.03;;;1.20;;
71490;SDS011;59307;50.060;9.150;2022-07-03T10:33:08;7.20;;;2.00;;
71490;SDS011;59307;50.060;9.150;2022-07-03T10:35:34;1.97;;;1.30;;
71490;SDS011;59307;50.060;9.150;2022-07-03T10:40:37;2.83;;;1.30;;
71490;SDS011;59307;50.060;9.150;2022-07-03T10:43:25;3.10;;;1.60;;
71490;SDS011;59307;50.060;9.150;2022-07-03T10:46:11;3.00;;;1.42;;
71490;SDS011;59307;50.060;9.150;2022-07-03T10:51:31;2.50;;;1.40;;
71490;SDS011;59307;50.060;9.150;2022-07-03T10:57:21;4.10;;;1.37;;
71490;SDS011;59307;50.060;9.150;2022-07-03T11:07:21;2.53;;;1.13;;
71490;SDS011;59307;50.060;9.150;2022-07-03T11:09:46;2.17;;;1.43;;
71490;SDS011;59307;50.060;9.150;2022-07-03T11:15:24;1.35;;;1.20;;
71490;SDS011;59307;50.060;9.150;2022-07-03T11:20:30;1.85;;;1.20;;
71490;SDS011;59307;50.060;9.150;2022-07-03T11:25:49;2.70;;;1.30;;
71490;SDS011;59307;50.060;9.150;2022-07-03T11:36:10;2.28;;;1.40;;
71490;SDS011;59307;50.060;9.150;2022-07-03T11:38:48;3.50;;;1.40;;
71490;SDS011;59307;50.060;9.150;2022-07-03T11:41:19;2.17;;;1.20;;
71490;SDS011;59307;50.060;9.150;2022-07-03T11:43:46;4.83;;;1.30;;
71490;SDS011;59307;50.060;9.150;2022-07-03T11:46:21;4.40;;;1.52;;
71490;SDS011;59307;50.060;9.150;2022-07-03T11:48:48;2.05;;;1.25;;
71490;SDS011;59307;50.060;9.150;2022-07-03T11:51:14;2.40;;;1.17;;
71490;SDS011;59307;50.060;9.150;2022-07-03T11:53:40;2.80;;;1.30;;
71490;SDS011;59307;50.060;9.150;2022-07-03T11:56:07;1.30;;;1.20;;
71490;SDS011;59307;50.060;9.150;2022-07-03T12:03:52;2.60;;;1.30;;
71490;SDS011;59307;50.060;9.150;2022-07-03T12:06:18;1.83;;;1.30;;
71490;SDS011;59307;50.060;9.150;2022-07-03T12:08:44;1.98;;;1.30;;
71490;SDS011;59307;50.060;9.150;2022-07-03T12:11:14;3.78;;;1.50;;
71490;SDS011;59307;50.060;9.150;2022-07-03T12:13:40;2.25;;;1.50;;
71490;SDS011;59307;50.060;9.150;2022-07-03T12:16:13;2.53;;;1.40;;
71490;SDS011;59307;50.060;9.150;2022-07-03T12:21:14;3.03;;;1.55;;
71490;SDS011;59307;50.060;9.150;2022-07-03T12:23:41;2.85;;;1.20;;
71490;SDS011;59307;50.060;9.150;2022-07-03T12:26:14;3.25;;;1.25;;
71490;SDS011;59307;50.060;9.150;2022-07-03T12:28:53;3.17;;;1.33;;
71490;SDS011;59307;50.060;9.150;2022-07-03T12:31:19;3.83;;;1.27;;
71490;SDS011;59307;50.060;9.150;2022-07-03T12:33:45;3.57;;;1.50;;
71490;SDS011;59307;50.060;9.150;2022-07-03T12:36:11;2.03;;;1.30;;
71490;SDS011;59307;50.060;9.150;2022-07-03T12:38:37;3.33;;;1.33;;
71490;SDS011;59307;50.060;9.150;2022-07-03T12:41:08;4.75;;;1.30;;
71490;SDS011;59307;50.060;9.150;2022-07-03T12:43:38;3.60;;;1.42;;
71490;SDS011;59307;50.060;9.150;2022-07-03T12:46:14;3.30;;;1.42;;
71490;SDS011;59307;50.060;9.150;2022-07-03T12:48:51;5.00;;;1.30;;
71490;SDS011;59307;50.060;9.150;2022-07-03T12:54:54;2.35;;;1.70;;
71490;SDS011;59307;50.060;9.150;2022-07-03T12:57:05;2.45;;;1.80;;
71490;SDS011;59307;50.060;9.150;2022-07-03T13:02:39;2.25;;;1.77;;
71490;SDS011;59307;50.060;9.150;2022-07-03T13:07:45;3.05;;;1.80;;
71490;SDS011;59307;50.060;9.150;2022-07-03T13:10:14;3.20;;;1.83;;
71490;SDS011;59307;50.060;9.150;2022-07-03T13:12:51;3.78;;;1.80;;
71490;SDS011;59307;50.060;9.150;2022-07-03T13:15:18;2.80;;;1.65;;
71490;SDS011;59307;50.060;9.150;2022-07-03T13:20:26;3.67;;;2.03;;
71490;SDS011;59307;50.060;9.150;2022-07-03T13:22:54;2.45;;;1.58;;
71490;SDS011;59307;50.060;9.150;2022-07-03T13:25:21;3.63;;;1.88;;
71490;SDS011;59307;50.060;9.150;2022-07-03T13:27:47;2.70;;;1.80;;
71490;SDS011;59307;50.060;9.150;2022-07-03T13:30:16;3.93;;;1.63;;
71490;SDS011;59307;50.060;9.150;2022-07-03T13:32:42;2.70;;;1.90;;
71490;SDS011;59307;50.060;9.150;2022-07-03T13:35:08;2.60;;;1.70;;
71490;SDS011;59307;50.060;9.150;2022-07-03T13:37:33;3.03;;;1.60;;
71490;SDS011;59307;50.060;9.150;2022-07-03T13:40:00;2.67;;;1.70;;
71490;SDS011;59307;50.060;9.150;2022-07-03T13:42:26;2.43;;;1.70;;
71490;SDS011;59307;50.060;9.150;2022-07-03T13:44:52;2.10;;;1.60;;
71490;SDS011;59307;50.060;9.150;2022-07-03T13:47:17;3.63;;;1.50;;
71490;SDS011;59307;50.060;9.150;2022-07-03T13:49:42;2.33;;;1.70;;
71490;SDS011;59307;50.060;9.150;2022-07-03T13:52:08;4.53;;;2.00;;
71490;SDS011;59307;50.060;9.150;2022-07-03T13:54:33;2.87;;;1.57;;
71490;SDS011;59307;50.060;9.150;2022-07-03T13:56:58;3.67;;;1.60;;
71490;SDS011;59307;50.060;9.150;2022-07-03T13:59:24;1.98;;;1.65;;
71490;SDS011;59307;50.060;9.150;2022-07-03T14:01:49;1.90;;;1.70;;
71490;SDS011;59307;50.060;9.150;2022-07-03T14:04:15;3.23;;;1.67;;
71490;SDS011;59307;50.060;9.150;2022-07-03T14:06:40;2.53;;;1.40;;
71490;SDS011;59307;50.060;9.150;2022-07-03T14:09:05;2.20;;;1.40;;
71490;SDS011;59307;50.060;9.150;2022-07-03T14:11:31;1.50;;;1.40;;
71490;SDS011;59307;50.060;9.150;2022-07-03T14:13:56;1.80;;;1.60;;
71490;SDS011;59307;50.060;9.150;2022-07-03T14:16:22;2.27;;;1.73;;
71490;SDS011;59307;50.060;9.150;2022-07-03T14:18:48;3.08;;;1.67;;
71490;SDS011;59307;50.060;9.150;2022-07-03T14:21:13;3.07;;;1.60;;
71490;SDS011;59307;50.060;9.150;2022-07-03T14:23:38;4.33;;;2.43;;
71490;SDS011;59307;50.060;9.150;2022-07-03T14:26:03;2.80;;;1.50;;
71490;SDS011;59307;50.060;9.150;2022-07-03T14:28:29;4.17;;;1.33;;
71490;SDS011;59307;50.060;9.150;2022-07-03T14:31:13;2.05;;;1.42;;
71490;SDS011;59307;50.060;9.150;2022-07-03T14:33:44;9.35;;;1.88;;
71490;SDS011;59307;50.060;9.150;2022-07-03T14:36:10;1.55;;;1.40;;
71490;SDS011;59307;50.060;9.150;2022-07-03T14:38:36;2.67;;;1.73;;
71490;SDS011;59307;50.060;9.150;2022-07-03T14:41:01;3.77;;;1.40;;
71490;SDS011;59307;50.060;9.150;2022-07-03T14:43:27;2.85;;;1.30;;
71490;SDS011;59307;50.060;9.150;2022-07-03T14:45:52;1.60;;;1.33;;
71490;SDS011;59307;50.060;9.150;2022-07-03T14:48:17;1.90;;;1.43;;
71490;SDS011;59307;50.060;9.150;2022-07-03T14:50:43;2.77;;;1.60;;
71490;SDS011;59307;50.060;9.150;2022-07-03T14:53:08;3.35;;;2.05;;
71490;SDS011;59307;50.060;9.150;2022-07-03T14:55:36;2.87;;;1.17;;
71490;SDS011;59307;50.060;9.150;2022-07-03T15:00:33;1.65;;;1.20;;
71490;SDS011;59307;50.060;9.150;2022-07-03T15:03:06;3.17;;;1.43;;
71490;SDS011;59307;50.060;9.150;2022-07-03T15:05:41;2.55;;;1.10;;
71490;SDS011;59307;50.060;9.150;2022-07-03T15:10:53;1.85;;;1.20;;
71490;SDS011;59307;50.060;9.150;2022-07-03T15:13:20;3.30;;;1.20;;
71490;SDS011;59307;50.060;9.150;2022-07-03T15:15:46;2.33;;;1.10;;
71490;SDS011;59307;50.060;9.150;2022-07-03T15:18:13;2.90;;;1.33;;
71490;SDS011;59307;50.060;9.150;2022-07-03T15:20:42;1.73;;;1.10;;
71490;SDS011;59307;50.060;9.150;2022-07-03T15:23:08;4.05;;;1.33;;
71490;SDS011;59307;50.060;9.150;2022-07-03T15:25:35;1.48;;;0.90;;
71490;SDS011;59307;50.060;9.150;2022-07-03T15:28:02;3.83;;;1.30;;
71490;SDS011;59307;50.060;9.150;2022-07-03T15:30:28;1.77;;;1.10;;
71490;SDS011;59307;50.060;9.150;2022-07-03T15:32:54;2.00;;;1.10;;
71490;SDS011;59307;50.060;9.150;2022-07-03T15:35:23;3.13;;;1.10;;
71490;SDS011;59307;50.060;9.150;2022-07-03T15:38:00;1.00;;;0.90;;
71490;SDS011;59307;50.060;9.150;2022-07-03T15:40:31;6.38;;;1.00;;
71490;SDS011;59307;50.060;9.150;2022-07-03T15:45:45;2.17;;;1.00;;
71490;SDS011;59307;50.060;9.150;2022-07-03T15:51:23;2.00;;;1.07;;
71490;SDS011;59307;50.060;9.150;2022-07-03T15:53:51;1.85;;;1.08;;
71490;SDS011;59307;50.060;9.150;2022-07-03T15:56:25;3.15;;;1.17;;
71490;SDS011;59307;50.060;9.150;2022-07-03T15:59:11;3.60;;;1.10;;
71490;SDS011;59307;50.060;9.150;2022-07-03T16:01:59;1.70;;;1.20;;
71490;SDS011;59307;50.060;9.150;2022-07-03T16:07:25;2.78;;;1.00;;
71490;SDS011;59307;50.060;9.150;2022-07-03T16:09:52;3.95;;;1.10;;
71490;SDS011;59307;50.060;9.150;2022-07-03T16:12:17;3.60;;;0.93;;
71490;SDS011;59307;50.060;9.150;2022-07-03T16:14:45;1.83;;;1.15;;
71490;SDS011;59307;50.060;9.150;2022-07-03T16:17:18;1.73;;;1.08;;
71490;SDS011;59307;50.060;9.150;2022-07-03T16:19:45;4.88;;;1.05;;
71490;SDS011;59307;50.060;9.150;2022-07-03T16:22:13;2.87;;;1.10;;
71490;SDS011;59307;50.060;9.150;2022-07-03T16:24:39;1.85;;;1.10;;
71490;SDS011;59307;50.060;9.150;2022-07-03T16:27:06;3.30;;;1.00;;
71490;SDS011;59307;50.060;9.150;2022-07-03T16:29:37;1.47;;;1.10;;
71490;SDS011;59307;50.060;9.150;2022-07-03T16:32:03;1.83;;;1.07;;
71490;SDS011;59307;50.060;9.150;2022-07-03T16:37:35;3.20;;;1.25;;
71490;SDS011;59307;50.060;9.150;2022-07-03T16:40:05;3.40;;;1.00;;
71490;SDS011;59307;50.060;9.150;2022-07-03T16:42:31;2.55;;;1.15;;
71490;SDS011;59307;50.060;9.150;2022-07-03T16:45:04;2.53;;;0.90;;